Stations météo

réclame
Mon MeteoGroup
Chateau Chinon, France (7270): Température de l'air & dewpoint: 18.04.2019 20:00:00 - 24.04.2019 20:00:00 (CEST)Chateau Chinon, France (7270): Vitesse du vent & gusts: 18.04.2019 20:00:00 - 24.04.2019 20:00:00 (CEST)Chateau Chinon, France (7270): Direction du vent: 18.04.2019 20:00:00 - 24.04.2019 20:00:00 (CEST)Chateau Chinon, France (7270): Quantités de précipitations: 18.04.2019 20:00:00 - 24.04.2019 20:00:00 (CEST)
Date & Time tt [°C] td [°C] ff [km/h] ff [knt] fx [km/h] fx [knt] dd rr [mm]
24.04.2019 20:00:00 - - - - - - - -
24.04.2019 19:00:00 13,1 4,3 13 7 41 22 SSE 0,0
24.04.2019 18:00:00 13,5 7,3 11 6 41 22 ESE 0,0
24.04.2019 17:00:00 12,5 5,6 9 5 35 19 S 0,0
24.04.2019 16:00:00 10,8 6,9 13 7 37 20 SE 0,0
24.04.2019 15:00:00 10,2 7,6 11 6 42 23 SSE 0,0
24.04.2019 14:00:00 10,1 7,7 9 5 41 22 S -
24.04.2019 13:00:00 7,9 6,2 9 5 34 18 SSW 0,8
24.04.2019 12:00:00 8,8 8,2 9 5 59 32 SW 3,0
24.04.2019 11:00:00 11,4 8,8 15 8 50 27 SSW 0,8
24.04.2019 10:00:00 11,7 8,7 15 8 52 28 SE 0,4
24.04.2019 09:00:00 13,0 7,9 11 6 44 24 ESE 0,0
24.04.2019 08:00:00 12,9 7,1 13 7 50 27 SSE -
24.04.2019 07:00:00 11,6 6,9 11 6 42 23 SE 0,0
24.04.2019 06:00:00 11,8 6,9 13 7 44 24 SE 0,0
24.04.2019 05:00:00 12,5 7,4 16 9 54 29 SE 0,0
24.04.2019 04:00:00 12,5 8,0 13 7 52 28 ESE 0,0
24.04.2019 03:00:00 12,7 8,0 11 6 39 21 ESE 0,0
24.04.2019 02:00:00 12,8 8,1 11 6 39 21 ESE -
24.04.2019 01:00:00 14,0 7,3 15 8 42 23 SSE 0,0
24.04.2019 00:00:00 14,5 7,1 15 8 63 34 SSE 0,0
23.04.2019 23:00:00 14,7 7,0 11 6 34 18 SE 0,0
23.04.2019 22:00:00 15,0 8,5 11 6 29 16 SE 0,0
23.04.2019 21:00:00 14,0 8,8 4 2 16 9 E 0,0
23.04.2019 20:00:00 15,9 8,4 8 4 21 11 SSE -
23.04.2019 19:00:00 18,9 9,1 5 3 26 14 SSW 0,0
23.04.2019 18:00:00 19,3 8,6 5 3 28 15 SW 0,0
23.04.2019 17:00:00 18,2 8,5 5 3 29 16 WSW 0,0
23.04.2019 16:00:00 18,4 8,9 8 4 22 12 SSW 0,0
23.04.2019 15:00:00 17,6 8,4 5 3 22 12 WSW 0,0
23.04.2019 14:00:00 17,1 9,5 5 3 24 13 WSW -
23.04.2019 13:00:00 15,6 9,0 9 5 26 14 SW 0,0
23.04.2019 12:00:00 15,1 8,3 4 2 21 11 W 0,0
23.04.2019 11:00:00 13,8 6,4 4 2 28 15 WSW 0,0
23.04.2019 10:00:00 13,4 6,3 8 4 39 21 W 0,0
23.04.2019 09:00:00 12,1 7,2 13 7 39 21 SSW 0,0
23.04.2019 08:00:00 12,3 6,6 11 6 29 16 SSW -
23.04.2019 07:00:00 13,2 5,8 5 3 22 12 S 0,0
23.04.2019 06:00:00 14,4 4,1 5 3 15 8 SW 0,0
23.04.2019 05:00:00 14,6 4,3 4 2 18 10 WSW 0,0
23.04.2019 04:00:00 15,0 3,8 4 2 9 5 SE 0,0
23.04.2019 03:00:00 15,9 4,0 5 3 11 6 ESE 0,0
23.04.2019 02:00:00 14,7 5,2 4 2 11 6 E -
23.04.2019 01:00:00 14,6 4,8 5 3 11 6 E 0,0
23.04.2019 00:00:00 14,8 4,2 4 2 16 9 E 0,0
22.04.2019 23:00:00 14,9 4,8 4 2 11 6 E 0,0
22.04.2019 22:00:00 15,6 5,8 4 2 9 5 E 0,0
22.04.2019 21:00:00 16,4 5,4 4 2 11 6 ENE 0,0
22.04.2019 20:00:00 18,6 4,4 0 0 9 5 N -
22.04.2019 19:00:00 21,7 3,4 2 1 13 7 E 0,0
22.04.2019 18:00:00 22,7 5,1 4 2 13 7 ESE 0,0
22.04.2019 17:00:00 21,8 9,3 4 2 18 10 W 0,0
22.04.2019 16:00:00 21,2 9,7 4 2 16 9 WNW 0,0
22.04.2019 15:00:00 21,0 10,5 4 2 13 7 SW 0,0
22.04.2019 14:00:00 22,5 6,7 4 2 18 10 ENE -
22.04.2019 13:00:00 21,5 7,7 5 3 18 10 ESE 0,0
22.04.2019 12:00:00 20,0 8,0 4 2 15 8 E 0,0
22.04.2019 11:00:00 16,9 8,8 4 2 13 7 E 0,0
22.04.2019 10:00:00 14,9 8,6 4 2 16 9 E 0,0
22.04.2019 09:00:00 12,6 6,8 5 3 26 14 E 0,0
22.04.2019 08:00:00 11,7 6,8 5 3 18 10 E -
22.04.2019 07:00:00 11,2 6,3 4 2 18 10 E 0,0
22.04.2019 06:00:00 11,2 6,5 8 4 18 10 E 0,0
22.04.2019 05:00:00 11,3 7,4 8 4 21 11 E 0,0
22.04.2019 04:00:00 11,3 7,4 8 4 15 8 E 0,0
22.04.2019 03:00:00 11,4 7,1 5 3 13 7 E 0,0
22.04.2019 02:00:00 11,6 6,9 4 2 9 5 ESE -
22.04.2019 01:00:00 11,2 6,9 4 2 9 5 ESE 0,0
22.04.2019 00:00:00 10,7 7,0 2 1 29 16 W 0,0
21.04.2019 23:00:00 12,2 7,1 9 5 35 19 WSW 0,0
21.04.2019 22:00:00 14,0 7,5 4 2 9 5 S 0,0
21.04.2019 21:00:00 14,2 7,3 2 1 8 4 W 0,0
21.04.2019 20:00:00 15,7 7,7 2 1 8 4 WNW -
21.04.2019 19:00:00 17,4 8,0 2 1 11 6 WNW 0,0
21.04.2019 18:00:00 18,5 8,5 4 2 24 13 W 0,0
21.04.2019 17:00:00 19,7 7,4 5 3 18 10 W 0,0
21.04.2019 16:00:00 18,8 7,2 5 3 16 9 WNW 0,0
21.04.2019 15:00:00 17,7 8,3 4 2 18 10 W 0,0
21.04.2019 14:00:00 18,2 7,9 5 3 21 11 W -
21.04.2019 13:00:00 18,2 7,6 5 3 22 12 WNW 0,0
21.04.2019 12:00:00 16,1 7,0 8 4 24 13 SW 0,0
21.04.2019 11:00:00 15,6 8,3 5 3 21 11 SW 0,0
21.04.2019 10:00:00 12,0 8,1 5 3 13 7 W 0,0
21.04.2019 09:00:00 13,4 3,7 4 2 13 7 E 0,0
21.04.2019 08:00:00 11,9 2,9 4 2 15 8 ESE -
21.04.2019 07:00:00 11,8 2,5 4 2 15 8 ESE 0,0
21.04.2019 06:00:00 11,7 2,7 2 1 15 8 E 0,0
21.04.2019 05:00:00 12,1 3,3 4 2 13 7 E 0,0
21.04.2019 04:00:00 13,0 3,6 8 4 28 15 E 0,0
21.04.2019 03:00:00 12,6 4,0 8 4 16 9 E 0,0
21.04.2019 02:00:00 12,1 3,8 5 3 13 7 E -
21.04.2019 01:00:00 11,3 3,6 4 2 13 7 E 0,0
21.04.2019 00:00:00 12,2 5,8 5 3 15 8 E 0,0
20.04.2019 23:00:00 12,7 7,4 4 2 11 6 E 0,0
20.04.2019 22:00:00 13,7 7,2 4 2 9 5 ESE 0,0
20.04.2019 21:00:00 14,1 7,8 4 2 9 5 W 0,0
20.04.2019 20:00:00 16,4 7,6 4 2 11 6 W -
20.04.2019 19:00:00 18,3 6,8 5 3 15 8 W 0,0
20.04.2019 18:00:00 17,6 7,9 5 3 18 10 W 0,0
20.04.2019 17:00:00 17,8 8,9 5 3 24 13 WNW 0,0
20.04.2019 16:00:00 17,7 9,1 5 3 24 13 NNE 0,6
20.04.2019 15:00:00 12,4 9,0 4 2 28 15 E 5,0
20.04.2019 14:00:00 18,4 10,2 4 2 22 12 NNW -
20.04.2019 13:00:00 19,6 10,8 4 2 15 8 W 0,0
20.04.2019 12:00:00 19,3 7,7 4 2 18 10 WNW 0,0
20.04.2019 11:00:00 19,9 7,6 4 2 13 7 NW 0,0
20.04.2019 10:00:00 18,6 5,4 5 3 15 8 ENE 0,0
20.04.2019 09:00:00 16,8 6,9 2 1 9 5 NE 0,0
20.04.2019 08:00:00 14,6 6,7 4 2 11 6 W -
20.04.2019 07:00:00 13,8 5,4 5 3 15 8 N 0,0
20.04.2019 06:00:00 14,2 4,5 0 0 11 6 N 0,0
20.04.2019 05:00:00 13,7 5,1 0 0 9 5 N 0,0
20.04.2019 04:00:00 13,5 5,6 5 3 15 8 ESE 0,0
20.04.2019 03:00:00 12,9 5,6 5 3 9 5 E 0,0
20.04.2019 02:00:00 13,6 5,5 5 3 18 10 E -
20.04.2019 01:00:00 13,7 5,1 5 3 16 9 ESE 0,0
20.04.2019 00:00:00 14,0 5,1 8 4 18 10 E 0,0
19.04.2019 23:00:00 14,1 5,2 8 4 18 10 ESE 0,0
19.04.2019 22:00:00 13,9 5,5 5 3 11 6 ESE 0,0
19.04.2019 21:00:00 15,0 4,9 4 2 8 4 ESE 0,0
19.04.2019 20:00:00 18,5 5,3 2 1 8 4 E -
19.04.2019 19:00:00 21,9 6,1 2 1 13 7 SSE 0,0
19.04.2019 18:00:00 22,7 5,6 4 2 18 10 S 0,0
19.04.2019 17:00:00 22,3 4,8 8 4 22 12 SW 0,0
19.04.2019 16:00:00 21,5 4,1 8 4 22 12 SW 0,0
19.04.2019 15:00:00 21,7 3,4 4 2 22 12 SW 0,0
19.04.2019 14:00:00 21,1 5,4 4 2 24 13 W -
19.04.2019 13:00:00 19,4 3,5 11 6 35 19 SSW 0,0
19.04.2019 12:00:00 18,1 3,5 16 9 46 25 SW 0,0
19.04.2019 11:00:00 17,4 2,2 15 8 39 21 SW 0,0
19.04.2019 10:00:00 16,6 1,1 13 7 29 16 SSW 0,0
19.04.2019 09:00:00 15,3 0,7 8 4 21 11 S 0,0
19.04.2019 08:00:00 12,3 1,3 9 5 18 10 SSE -
19.04.2019 07:00:00 11,6 1,8 9 5 18 10 SE 0,0
19.04.2019 06:00:00 11,4 2,1 5 3 15 8 SE 0,0
19.04.2019 05:00:00 11,6 1,8 5 3 13 7 S 0,0
19.04.2019 04:00:00 11,7 1,6 8 4 28 15 SSE 0,0
19.04.2019 03:00:00 13,9 0,8 16 9 39 21 SSW 0,0
19.04.2019 02:00:00 13,4 1,4 5 3 28 15 SSE -
19.04.2019 01:00:00 13,4 2,9 8 4 22 12 SE 0,0
19.04.2019 00:00:00 13,4 6,0 8 4 24 13 ESE 0,0
18.04.2019 23:00:00 13,4 6,9 5 3 26 14 ESE 0,0
18.04.2019 22:00:00 13,9 7,4 8 4 21 11 E 0,0
18.04.2019 21:00:00 14,4 7,0 8 4 22 12 E 0,0
18.04.2019 20:00:00 15,9 5,5 5 3 15 8 E -

tt = Température de l'air
td = dewpoint
ff = Vitesse du vent
fx = gusts
dd = Direction du vent
rr = Quantités de précipitations

stations d'obs. à proximité